Time;durP1;ratioP1;P1;durP2;ratioP2;P2;SDS_P1;SDS_P2;PMS_P1;PMS_P2;Temp;Humidity;BMP_temperature;BMP_pressure;BME280_temperature;BME280_humidity;BME280_pressure;Samples;Min_cycle;Max_cycle;Signal;HPM_P1;HPM_P2
2022/01/15 00:00:38;;;;;;;56.63;26.37;;;;;;;9.82;47.27;102143.13;4431263;32;20059;-70
2022/01/15 00:03:06;;;;;;;63.72;27.98;;;;;;;10.08;47.19;102139.97;4429961;32;20033;-70
2022/01/15 00:05:32;;;;;;;65.65;26.80;;;;;;;9.98;47.21;102140.75;4429630;32;20108;-70
2022/01/15 00:07:59;;;;;;;58.47;26.08;;;;;;;9.91;47.04;102133.09;4426807;32;20691;-70
2022/01/15 00:10:26;;;;;;;63.90;26.45;;;;;;;10.01;46.99;102129.47;4432241;32;20474;-70
2022/01/15 00:12:54;;;;;;;59.00;25.65;;;;;;;10.03;46.86;102118.63;4430759;32;20153;-70
2022/01/15 00:15:26;;;;;;;52.85;24.25;;;;;;;10.02;46.92;102113.41;4432021;32;20426;-70
2022/01/15 00:18:02;;;;;;;55.17;24.90;;;;;;;9.92;47.20;102119.84;4428127;32;20418;-70
2022/01/15 00:20:29;;;;;;;53.70;25.88;;;;;;;9.74;47.30;102114.22;4427913;32;20037;-70
2022/01/15 00:22:58;;;;;;;54.05;26.15;;;;;;;9.99;47.01;102117.03;4429711;32;20034;-70
2022/01/15 00:25:26;;;;;;;62.75;25.75;;;;;;;10.03;46.70;102109.38;4430503;32;20103;-70
2022/01/15 00:27:53;;;;;;;50.97;23.92;;;;;;;10.03;46.43;102109.38;4428769;32;20038;-70
2022/01/15 00:30:20;;;;;;;53.95;24.70;;;;;;;9.89;46.84;102107.41;4427580;32;20055;-70
2022/01/15 00:32:46;;;;;;;59.97;24.95;;;;;;;9.86;46.82;102094.16;4429681;32;21175;-70
2022/01/15 00:35:13;;;;;;;54.40;24.40;;;;;;;9.90;46.63;102097.75;4427120;32;20316;-70
2022/01/15 00:37:41;;;;;;;62.53;24.83;;;;;;;9.82;46.94;102098.94;4427198;32;20093;-70
2022/01/15 00:40:09;;;;;;;53.40;22.98;;;;;;;9.96;46.63;102086.91;4429953;32;20029;-70
2022/01/15 00:42:37;;;;;;;49.60;21.02;;;;;;;9.90;46.85;102089.31;4428434;32;20112;-71
2022/01/15 00:45:07;;;;;;;51.33;21.58;;;;;;;9.75;47.21;102079.25;4429553;32;20084;-71
2022/01/15 00:47:33;;;;;;;56.83;23.33;;;;;;;9.81;47.20;102080.47;4425373;32;20050;-70
2022/01/15 00:50:01;;;;;;;50.33;22.90;;;;;;;9.63;46.91;102074.03;4430876;32;20125;-70
2022/01/15 00:52:27;;;;;;;46.58;19.98;;;;;;;9.77;46.97;102079.69;4429667;32;20110;-70
2022/01/15 00:54:52;;;;;;;45.50;18.95;;;;;;;9.59;47.21;102072.41;4429085;32;20536;-70
2022/01/15 00:57:19;;;;;;;43.08;19.10;;;;;;;9.46;47.45;102068.38;4429437;32;20087;-70
2022/01/15 00:59:44;;;;;;;46.45;20.10;;;;;;;9.60;47.16;102065.59;4418843;32;20037;-70
2022/01/15 01:02:10;;;;;;;48.72;20.55;;;;;;;9.54;47.17;102062.38;4416322;32;20050;-70
2022/01/15 01:04:36;;;;;;;45.50;19.65;;;;;;;9.58;47.11;102054.75;4420391;32;20033;-70
2022/01/15 01:07:02;;;;;;;49.45;20.23;;;;;;;9.49;47.35;102051.53;4416270;32;20058;-70
2022/01/15 01:09:42;;;;;;;54.00;22.15;;;;;;;9.53;47.34;102052.34;4419060;32;20154;-70
2022/01/15 01:12:23;;;;;;;45.22;21.25;;;;;;;9.54;47.13;102056.75;4415858;32;20091;-70
2022/01/15 01:20:32;;;;;;;53.65;20.88;;;;;;;9.94;46.29;102047.94;4415662;32;20288;-71
2022/01/15 01:22:58;;;;;;;55.00;22.55;;;;;;;9.50;47.12;102041.91;4418489;32;20492;-70
2022/01/15 01:25:33;;;;;;;59.72;23.48;;;;;;;9.50;47.03;102041.91;4419931;32;20218;-70
2022/01/15 01:28:06;;;;;;;65.68;24.15;;;;;;;9.65;46.84;102025.84;4418294;32;20099;-70
2022/01/15 01:30:40;;;;;;;63.20;24.55;;;;;;;9.57;46.90;102025.03;4417222;32;20089;-70
2022/01/15 01:35:45;;;;;;;56.50;27.50;;;;;;;9.82;47.03;102020.22;3978743;32;15021791;-70
2022/01/15 01:38:18;;;;;;;50.20;22.52;;;;;;;9.82;47.03;102020.22;4429989;32;20046;-70
2022/01/15 01:40:48;;;;;;;48.63;20.73;;;;;;;9.58;47.18;102006.19;4426884;32;20378;-70
2022/01/15 01:46:12;;;;;;;40.90;18.48;;;;;;;9.79;46.45;102006.19;3980501;32;15022168;-70
2022/01/15 01:48:38;;;;;;;41.42;17.62;;;;;;;9.56;46.92;102000.97;4429809;32;20065;-70
2022/01/15 01:51:06;;;;;;;39.65;18.17;;;;;;;9.60;46.90;102001.75;4427419;32;20121;-70
2022/01/15 01:53:34;;;;;;;41.70;18.25;;;;;;;9.56;46.91;101995.34;4434708;32;20103;-70
2022/01/15 01:56:00;;;;;;;44.22;18.15;;;;;;;9.40;47.24;101983.69;4429158;32;20346;-70
2022/01/15 01:58:26;;;;;;;45.92;17.52;;;;;;;9.33;47.04;101985.69;4426627;32;20081;-70
2022/01/15 02:00:52;;;;;;;43.67;17.37;;;;;;;9.42;46.58;101978.47;4428083;32;20113;-70
2022/01/15 02:03:17;;;;;;;48.58;18.83;;;;;;;9.25;47.04;101984.88;4430043;32;20512;-70
2022/01/15 02:05:43;;;;;;;41.13;18.08;;;;;;;9.29;47.26;101982.06;4428650;32;20059;-70
2022/01/15 02:08:09;;;;;;;42.88;17.25;;;;;;;9.43;47.08;101973.66;4427794;32;20128;-70
2022/01/15 02:10:35;;;;;;;41.45;17.42;;;;;;;9.45;47.11;101977.66;4429156;32;20062;-70
2022/01/15 02:13:01;;;;;;;40.50;17.35;;;;;;;9.41;47.09;101968.44;4431526;32;20344;-70
2022/01/15 02:15:27;;;;;;;39.28;18.40;;;;;;;9.49;46.88;101963.62;4428811;32;20157;-70
2022/01/15 02:17:54;;;;;;;35.72;16.40;;;;;;;9.39;47.24;101964.44;4429990;32;20077;-70
2022/01/15 02:23:44;;;;;;;35.80;16.17;;;;;;;9.48;46.51;101957.19;3973481;32;15022085;-70
2022/01/15 02:25:58;;;;;;;46.20;17.25;;;;;;;9.48;47.15;101954.38;4427330;32;20382;-70
2022/01/15 02:28:26;;;;;;;38.25;16.10;;;;;;;9.59;46.98;101954.38;4426005;32;20224;-70
2022/01/15 02:30:54;;;;;;;36.40;16.33;;;;;;;9.58;47.13;101939.50;4426207;32;20101;-70
2022/01/15 02:33:20;;;;;;;37.03;15.20;;;;;;;9.46;47.34;101934.31;4426921;32;20029;-70
2022/01/15 02:35:45;;;;;;;37.08;16.15;;;;;;;9.43;47.13;101932.31;4423851;32;20149;-70
2022/01/15 02:38:12;;;;;;;39.78;15.73;;;;;;;9.39;47.17;101936.34;4424554;32;21506;-70
2022/01/15 02:40:38;;;;;;;34.97;15.27;;;;;;;9.48;47.03;101926.28;4427066;32;20065;-70
2022/01/15 02:43:09;;;;;;;33.67;15.75;;;;;;;9.56;47.09;101925.06;4426941;32;20415;-71
2022/01/15 02:45:36;;;;;;;37.95;16.67;;;;;;;9.68;47.05;101935.09;4426147;32;20060;-70
2022/01/15 02:48:03;;;;;;;33.70;15.43;;;;;;;9.47;47.10;101926.69;4425883;32;20081;-70
2022/01/15 02:50:30;;;;;;;32.85;15.05;;;;;;;9.76;46.57;101923.44;4412205;32;20422;-70
2022/01/15 02:53:00;;;;;;;38.50;16.25;;;;;;;9.77;46.36;101922.25;4425039;32;20034;-70
2022/01/15 02:55:25;;;;;;;38.63;16.25;;;;;;;9.76;46.41;101922.66;4425080;32;20490;-70
2022/01/15 02:57:52;;;;;;;37.92;16.77;;;;;;;9.61;46.44;101921.06;4425572;32;20037;-70
2022/01/15 03:00:17;;;;;;;36.40;16.70;;;;;;;9.57;46.59;101918.25;4427673;32;20091;-70
2022/01/15 03:02:43;;;;;;;45.33;16.02;;;;;;;9.58;46.54;101908.59;4425523;32;20470;-70
2022/01/15 03:05:09;;;;;;;37.95;16.58;;;;;;;9.53;46.72;101906.22;4424619;32;20064;-70
2022/01/15 03:07:36;;;;;;;34.67;16.00;;;;;;;9.51;46.71;101914.22;4423609;32;20110;-70
2022/01/15 03:10:03;;;;;;;38.70;16.92;;;;;;;9.46;46.93;101903.41;4424218;32;20074;-70
2022/01/15 03:12:29;;;;;;;41.85;18.05;;;;;;;9.62;46.59;101905.78;4425284;32;20099;-69
2022/01/15 03:15:00;;;;;;;38.70;17.17;;;;;;;9.45;46.61;101909.44;4423003;32;20033;-70
2022/01/15 03:17:25;;;;;;;41.28;17.98;;;;;;;9.44;46.71;101897.38;4426935;32;20063;-70
2022/01/15 03:19:51;;;;;;;42.47;18.10;;;;;;;9.37;46.51;101899.41;4425951;32;20061;-69
2022/01/15 03:22:19;;;;;;;46.03;19.23;;;;;;;9.37;46.69;101893.78;4426466;32;20061;-70
2022/01/15 03:24:45;;;;;;;44.70;18.42;;;;;;;9.35;46.71;101891.37;4423642;32;20607;-70
2022/01/15 03:27:11;;;;;;;46.13;18.35;;;;;;;9.37;46.87;101896.59;4429776;32;20081;-70
2022/01/15 03:29:37;;;;;;;45.03;19.10;;;;;;;9.35;46.61;101894.19;4425411;32;20069;-70
2022/01/15 03:32:03;;;;;;;37.45;16.62;;;;;;;9.37;46.67;101888.97;4424349;32;20168;-70
2022/01/15 03:34:29;;;;;;;42.13;18.10;;;;;;;9.36;46.80;101887.34;4416253;32;20070;-70
2022/01/15 03:36:55;;;;;;;44.92;17.27;;;;;;;9.30;46.80;101890.97;4414774;32;20447;-70
2022/01/15 03:39:21;;;;;;;42.95;18.58;;;;;;;9.33;46.71;101884.56;4414405;32;20030;-70
2022/01/15 03:41:46;;;;;;;41.92;19.05;;;;;;;9.30;46.79;101877.72;4413580;32;20073;-70
2022/01/15 03:44:12;;;;;;;42.28;17.12;;;;;;;9.34;46.73;101880.53;4417161;32;20129;-70
2022/01/15 03:46:38;;;;;;;47.33;19.00;;;;;;;9.30;46.80;101879.75;4414308;32;20054;-70
2022/01/15 03:49:04;;;;;;;39.58;17.48;;;;;;;9.24;46.86;101870.91;4413829;32;20070;-70
2022/01/15 03:51:30;;;;;;;39.00;17.67;;;;;;;9.19;46.85;101871.31;4415954;32;20516;-70
2022/01/15 03:53:55;;;;;;;39.72;17.50;;;;;;;9.23;46.97;101863.69;4413335;32;20132;-70
2022/01/15 03:56:21;;;;;;;42.35;19.15;;;;;;;9.20;46.68;101869.28;4413731;32;20081;-70
2022/01/15 03:58:46;;;;;;;46.10;18.70;;;;;;;9.19;46.51;101862.09;4416650;32;20096;-70
2022/01/15 04:01:12;;;;;;;38.90;18.02;;;;;;;9.21;46.51;101860.47;4412762;32;20065;-70
2022/01/15 04:03:39;;;;;;;39.70;17.58;;;;;;;9.13;46.72;101855.28;4412853;32;20545;-70
2022/01/15 04:06:05;;;;;;;40.20;17.52;;;;;;;9.26;46.64;101856.44;4413223;32;20434;-70
2022/01/15 04:08:31;;;;;;;45.60;19.10;;;;;;;9.27;46.57;101861.66;4412700;32;20042;-70
2022/01/15 04:10:58;;;;;;;46.88;19.10;;;;;;;9.06;46.71;101852.47;4414420;32;20096;-70
2022/01/15 04:13:31;;;;;;;50.28;20.50;;;;;;;9.11;46.82;101849.28;4414408;32;20033;-70
2022/01/15 04:15:57;;;;;;;49.03;21.23;;;;;;;9.15;46.54;101856.50;4416152;32;20081;-70
2022/01/15 04:18:23;;;;;;;61.08;24.83;;;;;;;9.14;46.50;101849.25;4413926;32;20077;-70
2022/01/15 04:20:51;;;;;;;61.55;26.45;;;;;;;9.14;46.61;101840.81;4414983;32;20138;-70
2022/01/15 04:23:17;;;;;;;69.50;30.33;;;;;;;9.12;46.84;101834.81;4416224;32;20122;-70
2022/01/15 04:25:42;;;;;;;54.90;23.23;;;;;;;9.08;47.12;101833.22;4416309;32;20069;-70
2022/01/15 04:28:10;;;;;;;56.83;23.48;;;;;;;8.98;47.13;101823.59;4412302;32;20042;-70
2022/01/15 04:30:40;;;;;;;63.33;25.60;;;;;;;9.01;47.13;101821.97;4412396;32;20083;-70
2022/01/15 04:33:05;;;;;;;57.80;25.02;;;;;;;9.11;47.26;101818.38;4415896;32;20814;-70
2022/01/15 04:35:31;;;;;;;53.90;24.55;;;;;;;8.99;47.19;101811.16;4402527;32;20102;-70
2022/01/15 04:38:04;;;;;;;58.58;26.27;;;;;;;9.04;47.07;101807.13;4413187;32;20076;-70
2022/01/15 04:40:30;;;;;;;65.12;27.90;;;;;;;9.01;47.18;101803.13;4414352;32;20042;-70
2022/01/15 04:42:55;;;;;;;60.05;26.33;;;;;;;8.98;47.40;101797.50;4413003;32;20137;-70
2022/01/15 04:45:22;;;;;;;63.50;24.85;;;;;;;8.94;47.33;101797.53;4412365;32;20069;-70
2022/01/15 04:47:48;;;;;;;68.03;28.55;;;;;;;9.02;47.04;101789.91;4414910;32;20100;-70
2022/01/15 04:50:16;;;;;;;63.83;27.45;;;;;;;9.02;47.20;101779.44;4412468;32;20105;-70
2022/01/15 04:52:42;;;;;;;58.87;26.15;;;;;;;9.22;47.20;101771.41;4411152;32;21343;-70
2022/01/15 04:55:10;;;;;;;59.83;25.60;;;;;;;9.00;47.29;101778.25;4414865;32;20422;-70
2022/01/15 04:57:36;;;;;;;56.63;23.62;;;;;;;9.12;47.30;101781.47;4412695;32;20418;-70
2022/01/15 05:00:08;;;;;;;53.83;22.77;;;;;;;9.06;47.03;101779.47;4413332;32;20510;-70
2022/01/15 05:02:34;;;;;;;50.22;22.23;;;;;;;9.14;47.13;101781.84;4411124;32;20069;-70
2022/01/15 05:05:00;;;;;;;49.13;22.62;;;;;;;8.70;47.54;101780.69;4414482;32;20545;-70
2022/01/15 05:07:25;;;;;;;50.03;20.90;;;;;;;8.86;47.37;101779.06;4413015;32;20479;-70
2022/01/15 05:09:51;;;;;;;50.35;21.20;;;;;;;8.87;47.37;101774.28;4411802;32;20067;-70
2022/01/15 05:12:39;;;;;;;47.53;19.50;;;;;;;8.88;47.25;101773.88;4414244;32;20073;-70
2022/01/15 05:15:02;;;;;;;44.67;19.35;;;;;;;8.95;47.26;101764.63;4413308;32;20379;-70
2022/01/15 05:17:28;;;;;;;43.75;18.75;;;;;;;8.87;47.49;101769.44;4414359;32;20158;-69
2022/01/15 05:19:54;;;;;;;43.28;19.37;;;;;;;8.82;47.67;101749.41;4412216;32;20513;-69
2022/01/15 05:22:19;;;;;;;37.20;17.15;;;;;;;8.89;47.33;101750.19;4415817;32;20484;-69
2022/01/15 05:24:45;;;;;;;41.65;18.05;;;;;;;8.89;47.39;101741.78;4411372;32;20078;-70
2022/01/15 05:27:11;;;;;;;46.97;17.67;;;;;;;8.87;47.48;101743.41;4413706;32;20053;-69
2022/01/15 05:29:37;;;;;;;47.42;18.52;;;;;;;8.91;47.43;101744.19;4415688;32;20916;-69
2022/01/15 05:32:03;;;;;;;39.47;18.35;;;;;;;8.88;47.25;101747.78;4401230;32;20067;-69
2022/01/15 05:34:29;;;;;;;43.33;18.20;;;;;;;8.85;47.46;101748.59;4415775;32;20394;-69
2022/01/15 05:36:55;;;;;;;36.20;17.27;;;;;;;8.84;47.35;101753.41;4414893;32;20050;-69
2022/01/15 05:39:20;;;;;;;40.35;17.02;;;;;;;8.98;47.11;101750.59;4414905;32;20374;-69
2022/01/15 05:41:46;;;;;;;45.22;18.52;;;;;;;9.00;47.19;101750.19;4416246;32;20060;-69
2022/01/15 05:44:11;;;;;;;42.10;18.23;;;;;;;8.85;47.29;101763.44;4416538;32;20089;-69
2022/01/15 05:46:37;;;;;;;42.97;17.33;;;;;;;8.95;47.32;101751.41;4415378;32;20106;-69
2022/01/15 05:49:04;;;;;;;39.75;17.92;;;;;;;8.97;47.25;101748.19;4412145;32;20487;-69
2022/01/15 05:51:31;;;;;;;39.80;17.33;;;;;;;9.10;46.97;101750.19;4411634;32;20084;-69
2022/01/15 05:53:58;;;;;;;36.10;16.55;;;;;;;8.98;46.96;101744.16;4413727;32;20029;-69
2022/01/15 05:56:25;;;;;;;36.60;16.67;;;;;;;9.02;46.90;101745.75;4414981;32;20352;-69
2022/01/15 05:58:51;;;;;;;40.67;17.05;;;;;;;9.00;46.97;101745.37;4400113;32;20045;-69
2022/01/15 06:01:17;;;;;;;42.42;17.42;;;;;;;8.81;46.75;101740.16;4411514;32;20500;-69
2022/01/15 06:03:42;;;;;;;42.85;18.85;;;;;;;8.93;46.95;101742.56;4417052;32;20143;-69
2022/01/15 06:06:08;;;;;;;39.63;18.02;;;;;;;8.84;46.83;101744.19;4413875;32;20348;-69
2022/01/15 06:08:33;;;;;;;44.35;18.95;;;;;;;8.79;47.00;101733.38;4413674;32;20038;-69
2022/01/15 06:11:03;;;;;;;44.05;19.10;;;;;;;8.76;46.93;101739.78;4408745;32;20520;-69
2022/01/15 06:13:28;;;;;;;40.55;17.35;;;;;;;8.78;47.05;101728.97;4413263;32;20072;-69
2022/01/15 06:15:54;;;;;;;44.72;20.20;;;;;;;8.71;47.12;101746.59;4416005;32;20077;-69
2022/01/15 06:18:19;;;;;;;36.70;17.02;;;;;;;8.71;47.19;101748.63;4412222;32;20088;-69
2022/01/15 06:20:45;;;;;;;36.08;16.73;;;;;;;8.57;47.35;101749.44;4415702;32;20092;-70
2022/01/15 06:23:11;;;;;;;42.65;16.87;;;;;;;8.70;47.10;101750.62;4410243;32;20104;-69
2022/01/15 06:25:37;;;;;;;41.35;17.25;;;;;;;8.69;47.00;101748.22;4413612;32;20119;-69
2022/01/15 06:28:03;;;;;;;42.90;17.25;;;;;;;8.64;47.04;101749.41;4415231;32;20070;-69
2022/01/15 06:30:29;;;;;;;42.20;17.65;;;;;;;8.60;47.12;101742.19;4413453;32;20046;-69
2022/01/15 06:32:54;;;;;;;40.47;16.75;;;;;;;8.56;47.23;101742.19;4413647;32;20162;-69
2022/01/15 06:35:21;;;;;;;41.03;16.25;;;;;;;8.53;47.04;101728.97;4413688;32;20101;-69
2022/01/15 06:37:48;;;;;;;37.70;16.85;;;;;;;8.47;47.44;101738.19;4412733;32;20034;-69
2022/01/15 06:40:15;;;;;;;34.97;16.37;;;;;;;8.26;47.27;101735.37;4409651;32;20033;-69
2022/01/15 06:42:42;;;;;;;40.70;17.30;;;;;;;8.43;47.48;101735.37;4409882;32;20077;-69
2022/01/15 06:45:09;;;;;;;38.92;17.30;;;;;;;8.47;47.21;101738.97;4414204;32;20097;-69
2022/01/15 06:47:35;;;;;;;44.45;17.67;;;;;;;8.34;47.60;101732.16;4414412;32;20531;-69
2022/01/15 06:50:04;;;;;;;40.05;17.00;;;;;;;8.46;47.34;101730.97;4410922;32;20071;-69
2022/01/15 06:52:36;;;;;;;41.22;17.90;;;;;;;8.52;47.17;101732.16;4410707;32;20495;-69
2022/01/15 06:55:03;;;;;;;56.03;30.50;;;;;;;8.63;47.20;101724.56;4410888;32;20084;-71
2022/01/15 06:57:28;;;;;;;44.53;20.40;;;;;;;8.52;47.49;101724.56;4412616;32;20107;-69
2022/01/15 06:59:55;;;;;;;35.45;15.48;;;;;;;8.26;47.65;101712.94;4411203;32;20077;-69
2022/01/15 07:02:21;;;;;;;37.15;15.90;;;;;;;8.15;47.94;101713.69;4411170;32;20106;-69
2022/01/15 07:04:46;;;;;;;36.55;15.02;;;;;;;8.04;48.51;101714.91;4410886;32;20150;-69
2022/01/15 07:07:12;;;;;;;35.83;14.23;;;;;;;8.34;48.11;101715.34;4412162;32;20061;-69
2022/01/15 07:09:38;;;;;;;34.78;14.90;;;;;;;8.41;47.72;101714.56;4415226;32;20068;-69
2022/01/15 07:12:04;;;;;;;39.70;15.57;;;;;;;8.40;47.76;101718.56;4417078;32;20419;-70
2022/01/15 07:14:30;;;;;;;40.53;16.05;;;;;;;8.38;47.82;101715.34;4414548;32;20030;-69
2022/01/15 07:16:55;;;;;;;35.53;14.90;;;;;;;8.28;47.62;101719.75;4414315;32;20669;-69
2022/01/15 07:19:21;;;;;;;43.78;16.00;;;;;;;8.37;47.46;101711.72;4417666;32;20060;-69
2022/01/15 07:21:47;;;;;;;37.28;15.02;;;;;;;8.36;47.59;101714.94;4416740;32;20115;-69
2022/01/15 07:24:14;;;;;;;38.30;15.18;;;;;;;8.32;47.50;101708.53;4414546;32;20060;-70
2022/01/15 07:26:40;;;;;;;34.45;15.27;;;;;;;8.46;47.64;101714.94;4416369;32;20066;-70
2022/01/15 07:29:14;;;;;;;39.70;15.25;;;;;;;8.48;47.60;101706.12;4414059;32;20105;-69
2022/01/15 07:31:40;;;;;;;39.08;15.98;;;;;;;8.50;47.49;101700.94;4414167;32;20057;-69
2022/01/15 07:34:07;;;;;;;34.92;13.80;;;;;;;8.54;47.39;101705.34;4417099;32;20451;-70
2022/01/15 07:36:32;;;;;;;36.85;14.75;;;;;;;8.45;47.55;101709.72;4414240;32;20053;-70
2022/01/15 07:38:58;;;;;;;36.15;15.70;;;;;;;8.39;47.76;101714.94;4412574;32;20071;-70
2022/01/15 07:41:24;;;;;;;35.53;15.93;;;;;;;8.41;47.51;101706.12;4412052;32;20097;-70
2022/01/15 07:43:50;;;;;;;51.03;16.90;;;;;;;8.40;47.70;101690.53;4416984;32;20441;-70
2022/01/15 07:46:16;;;;;;;39.67;17.10;;;;;;;8.47;47.43;101690.50;4413957;32;20212;-70
2022/01/15 07:48:42;;;;;;;42.72;18.00;;;;;;;8.45;47.24;101701.31;4415774;32;20384;-70
2022/01/15 07:51:07;;;;;;;49.78;18.42;;;;;;;8.45;47.30;101693.72;4412646;32;20130;-70
2022/01/15 07:53:34;;;;;;;45.10;17.98;;;;;;;8.50;46.93;101692.50;4412848;32;20065;-69
2022/01/15 07:55:59;;;;;;;41.75;18.05;;;;;;;8.42;47.25;101693.72;4413459;32;20114;-70
2022/01/15 07:58:25;;;;;;;41.15;17.45;;;;;;;8.41;47.06;101681.69;4415687;32;20469;-70
2022/01/15 08:00:50;;;;;;;42.67;18.17;;;;;;;8.37;47.03;101683.69;4415379;32;20049;-70
2022/01/15 08:03:16;;;;;;;41.28;18.12;;;;;;;8.37;46.92;101675.28;4413796;32;20513;-70
2022/01/15 08:05:42;;;;;;;42.72;17.98;;;;;;;8.39;47.00;101680.47;4416938;32;20100;-70
2022/01/15 08:08:07;;;;;;;46.33;18.12;;;;;;;8.37;47.00;101694.13;4417260;32;20095;-70
2022/01/15 08:10:33;;;;;;;40.33;16.87;;;;;;;8.33;47.05;101710.12;4412995;32;20478;-70
2022/01/15 08:13:00;;;;;;;40.95;18.00;;;;;;;8.35;47.36;101711.34;4397975;32;21221;-70
2022/01/15 08:15:26;;;;;;;40.08;17.23;;;;;;;8.34;47.33;101726.56;4415540;32;20104;-70
2022/01/15 08:17:52;;;;;;;27.67;12.50;;;;;;;8.33;47.57;101722.16;4415926;32;20104;-70
2022/01/15 08:20:18;;;;;;;36.55;16.35;;;;;;;8.28;47.64;101711.31;4413207;32;20092;-70
2022/01/15 08:22:45;;;;;;;34.22;13.70;;;;;;;8.37;47.39;101703.31;4414687;32;20066;-70
2022/01/15 08:25:16;;;;;;;41.42;16.23;;;;;;;8.29;47.38;101703.72;4412795;32;20065;-70
2022/01/15 08:27:42;;;;;;;35.03;15.48;;;;;;;8.51;47.19;101692.09;4412531;32;20081;-70
2022/01/15 08:30:09;;;;;;;34.05;14.95;;;;;;;8.39;47.15;101702.91;4412848;32;20077;-70
2022/01/15 08:32:35;;;;;;;39.08;16.25;;;;;;;8.44;47.22;101703.31;4412524;32;20092;-70
2022/01/15 08:35:00;;;;;;;31.08;15.25;;;;;;;8.43;47.30;101712.94;4411945;32;20450;-70
2022/01/15 08:37:26;;;;;;;34.58;15.38;;;;;;;8.42;47.10;101694.50;4410487;32;20034;-70
2022/01/15 08:39:53;;;;;;;32.72;14.32;;;;;;;8.51;46.88;101694.91;4413476;32;20419;-70
2022/01/15 08:42:19;;;;;;;33.33;13.62;;;;;;;8.68;46.62;101682.88;4415683;32;20026;-70
2022/01/15 08:44:45;;;;;;;31.55;14.05;;;;;;;8.50;46.72;101682.06;4413198;32;20486;-70
2022/01/15 08:47:11;;;;;;;26.40;10.98;;;;;;;8.55;46.79;101686.47;4413501;32;20271;-70
2022/01/15 08:49:38;;;;;;;29.65;12.35;;;;;;;8.65;47.01;101674.47;4413422;32;20061;-70
2022/01/15 08:52:04;;;;;;;27.92;12.55;;;;;;;8.80;46.74;101674.03;4412423;32;20364;-70
2022/01/15 08:54:30;;;;;;;31.70;14.65;;;;;;;8.77;46.67;101674.84;4412383;32;20068;-70
2022/01/15 08:56:56;;;;;;;31.55;13.23;;;;;;;8.79;46.32;101672.44;4414315;32;20056;-70
2022/01/15 08:59:23;;;;;;;31.60;13.85;;;;;;;8.84;46.25;101669.19;4413406;32;20147;-70
2022/01/15 09:01:49;;;;;;;34.72;15.10;;;;;;;8.83;46.32;101667.59;4412484;32;20073;-70
2022/01/15 09:04:15;;;;;;;36.72;15.60;;;;;;;8.96;45.85;101663.16;4413436;32;20038;-69
2022/01/15 09:06:43;;;;;;;33.40;14.32;;;;;;;8.94;46.05;101665.59;4412863;32;20275;-70
2022/01/15 09:09:09;;;;;;;32.97;14.27;;;;;;;8.94;46.01;101662.78;4413255;32;20374;-70
2022/01/15 09:11:35;;;;;;;40.00;16.67;;;;;;;8.96;45.74;101663.16;4411911;32;20042;-70
2022/01/15 09:14:01;;;;;;;31.75;15.18;;;;;;;9.10;45.85;101649.09;4413430;32;20406;-70
2022/01/15 09:16:27;;;;;;;40.53;17.20;;;;;;;9.19;45.61;101649.44;4413205;32;20064;-70
2022/01/15 09:18:53;;;;;;;43.15;18.75;;;;;;;9.24;45.46;101651.81;4413490;32;20427;-70
2022/01/15 09:21:18;;;;;;;46.63;19.35;;;;;;;9.26;45.28;101652.22;4416426;32;20869;-70
2022/01/15 09:23:45;;;;;;;48.05;20.20;;;;;;;9.37;45.33;101641.75;4412557;32;20195;-70
2022/01/15 09:26:19;;;;;;;57.35;22.90;;;;;;;9.47;45.48;101643.69;4413397;32;20087;-70
2022/01/15 09:31:33;;;;;;;49.13;20.92;;;;;;;9.73;45.78;101640.31;4410525;32;20046;-70
2022/01/15 09:33:59;;;;;;;47.40;22.00;;;;;;;9.97;45.49;101641.38;4412400;32;20378;-70
2022/01/15 09:36:25;;;;;;;50.58;22.10;;;;;;;10.09;45.17;101632.47;4412069;32;20068;-70
2022/01/15 09:38:51;;;;;;;51.33;21.50;;;;;;;10.50;44.56;101633.34;4412638;32;20531;-70
2022/01/15 09:41:18;;;;;;;41.97;19.50;;;;;;;10.80;43.50;101635.44;4411196;32;20068;-70
2022/01/15 09:43:44;;;;;;;41.08;19.67;;;;;;;11.29;42.64;101635.62;4412223;32;20018;-71
2022/01/15 09:46:11;;;;;;;42.15;19.15;;;;;;;11.62;42.57;101643.28;4413076;32;20462;-70
2022/01/15 09:48:38;;;;;;;37.53;18.65;;;;;;;11.95;41.91;101641.59;4411955;32;20027;-70
2022/01/15 09:51:05;;;;;;;37.45;17.85;;;;;;;12.57;40.82;101640.97;4409562;32;20078;-70
2022/01/15 09:53:33;;;;;;;42.17;20.27;;;;;;;12.97;39.85;101639.78;4409994;32;20093;-71
2022/01/15 09:56:00;;;;;;;41.33;21.50;;;;;;;12.92;38.88;101643.91;4414471;32;20042;-70
2022/01/15 09:58:26;;;;;;;44.97;23.05;;;;;;;13.07;38.85;101631.16;4415657;32;20221;-70
2022/01/15 10:00:52;;;;;;;75.78;32.47;;;;;;;13.56;38.23;101641.41;4410442;32;20060;-70
2022/01/15 10:03:19;;;;;;;68.60;34.28;;;;;;;13.46;38.15;101633.16;4399727;32;20077;-70
2022/01/15 10:05:46;;;;;;;72.05;33.60;;;;;;;13.91;37.16;101620.81;4413668;32;20042;-70
2022/01/15 10:08:13;;;;;;;69.90;34.05;;;;;;;14.13;36.52;101620.28;4411816;32;20102;-70
2022/01/15 10:10:46;;;;;;;79.72;35.15;;;;;;;14.20;35.99;101618.06;4412519;32;20443;-70
2022/01/15 10:18:44;;;;;;;63.15;31.30;;;;;;;14.75;35.55;101634.06;3996594;31;15018726;-70
2022/01/15 10:26:28;;;;;;;57.08;28.35;;;;;;;14.38;35.16;101632.63;3984547;31;15016599;-71
2022/01/15 10:28:59;;;;;;;61.30;29.40;;;;;;;14.57;35.91;101628.09;4442655;32;20033;-71
2022/01/15 10:31:29;;;;;;;60.08;29.23;;;;;;;14.79;35.64;101621.38;4440645;32;20046;-70
2022/01/15 10:33:56;;;;;;;62.13;29.37;;;;;;;14.59;35.25;101617.09;4442516;32;20101;-69
2022/01/15 10:36:25;;;;;;;60.95;30.20;;;;;;;14.65;35.48;101621.78;4443479;32;20058;-69
2022/01/15 10:38:51;;;;;;;58.95;30.35;;;;;;;14.74;35.31;101624.78;4442021;32;20033;-70
2022/01/15 10:41:35;;;;;;;68.30;32.67;;;;;;;14.42;34.94;101618.38;4425758;32;20071;-69
2022/01/15 10:44:21;;;;;;;63.92;32.53;;;;;;;15.13;34.87;101624.47;4444581;32;20095;-69
2022/01/15 10:46:48;;;;;;;68.82;32.65;;;;;;;15.08;34.82;101613.72;4441635;32;20099;-71
2022/01/15 10:49:24;;;;;;;63.33;32.00;;;;;;;15.07;34.60;101614.94;4439435;32;20297;-71
2022/01/15 10:52:05;;;;;;;60.03;31.75;;;;;;;15.53;34.32;101610.78;4442704;32;20103;-71
2022/01/15 10:54:31;;;;;;;65.12;31.77;;;;;;;15.66;33.31;101617.25;4439833;32;20090;-71
2022/01/15 10:57:08;;;;;;;63.65;31.80;;;;;;;15.64;34.17;101608.41;4442575;32;20586;-71
2022/01/15 10:59:35;;;;;;;62.58;31.67;;;;;;;15.87;33.91;101608.09;4435211;32;20417;-71
2022/01/15 11:02:16;;;;;;;64.20;32.33;;;;;;;15.84;33.78;101611.84;4438046;32;20555;-71
2022/01/15 11:04:42;;;;;;;64.05;33.53;;;;;;;16.09;33.03;101608.19;4446420;32;20037;-71
2022/01/15 11:07:13;;;;;;;71.82;32.42;;;;;;;15.66;33.83;101597.41;4438383;32;20071;-71
2022/01/15 11:09:39;;;;;;;71.00;34.30;;;;;;;15.87;32.93;101605.25;4439512;32;20108;-70
2022/01/15 11:12:05;;;;;;;65.85;32.95;;;;;;;15.48;33.48;101591.47;4443017;32;20085;-70
2022/01/15 11:14:31;;;;;;;73.80;33.55;;;;;;;15.66;34.17;101594.56;4440460;32;20077;-71
2022/01/15 11:16:59;;;;;;;74.40;33.83;;;;;;;15.54;34.40;101587.62;4440798;32;20045;-71
2022/01/15 11:19:30;;;;;;;68.12;32.85;;;;;;;15.53;34.55;101588.88;4439988;32;20374;-71
2022/01/15 11:21:57;;;;;;;68.10;31.50;;;;;;;15.89;34.27;101580.81;4439684;32;20105;-71
2022/01/15 11:24:23;;;;;;;64.95;32.40;;;;;;;16.07;33.99;101585.13;4437754;32;20611;-71
2022/01/15 11:26:55;;;;;;;69.47;34.03;;;;;;;15.82;34.03;101580.25;4442931;32;20502;-71
2022/01/15 11:29:21;;;;;;;72.22;33.00;;;;;;;15.45;34.85;101572.53;4438257;32;20036;-71
2022/01/15 11:31:53;;;;;;;73.57;34.05;;;;;;;15.24;34.70;101570.28;4439870;32;20038;-71
2022/01/15 11:34:20;;;;;;;74.30;33.55;;;;;;;15.20;35.59;101564.75;4440965;32;20093;-71
2022/01/15 11:36:47;;;;;;;63.20;33.00;;;;;;;14.95;35.63;101550.50;4433844;32;20056;-71
2022/01/15 11:39:18;;;;;;;69.55;33.22;;;;;;;14.96;35.58;101549.25;4430564;32;20117;-71
2022/01/15 11:41:52;;;;;;;72.40;33.85;;;;;;;15.17;35.66;101537.28;4428549;32;20068;-71